createdAt,value
2023-05-10T00:00:19.469Z,12.45
2023-05-10T00:01:20.356Z,12.45
2023-05-10T00:02:19.351Z,12.45
2023-05-10T00:03:19.426Z,12.42
2023-05-10T00:04:19.913Z,12.33
2023-05-10T00:05:20.272Z,12.36
2023-05-10T00:06:19.361Z,12.39
2023-05-10T00:07:19.402Z,12.36
2023-05-10T00:08:19.339Z,12.35
2023-05-10T00:09:19.511Z,12.35
2023-05-10T00:10:18.707Z,12.33
2023-05-10T00:11:20.937Z,12.39
2023-05-10T00:12:19.327Z,12.35
2023-05-10T00:13:19.107Z,12.33
2023-05-10T00:14:19.333Z,12.35
2023-05-10T00:15:19.860Z,12.33
2023-05-10T00:16:19.315Z,12.39
2023-05-10T00:17:18.898Z,12.36
2023-05-10T00:18:18.490Z,12.36
2023-05-10T00:19:19.482Z,12.35
2023-05-10T00:20:19.484Z,12.28
2023-05-10T00:21:19.095Z,12.32
2023-05-10T00:22:19.210Z,12.33
2023-05-10T00:23:19.929Z,12.35
2023-05-10T00:24:19.211Z,12.35
2023-05-10T00:25:19.193Z,12.32
2023-05-10T00:26:19.141Z,12.28
2023-05-10T00:27:19.090Z,12.20
2023-05-10T00:28:19.793Z,12.20
2023-05-10T00:29:19.618Z,12.13
2023-05-10T00:30:19.134Z,12.21
2023-05-10T00:31:19.156Z,12.20
2023-05-10T00:32:19.693Z,12.20
2023-05-10T00:33:19.122Z,12.21
2023-05-10T00:34:19.644Z,12.25
2023-05-10T00:35:20.114Z,12.25
2023-05-10T00:36:18.963Z,12.28
2023-05-10T00:37:19.627Z,12.25
2023-05-10T00:38:18.962Z,12.20
2023-05-10T00:39:19.058Z,12.21
2023-05-10T00:40:19.859Z,12.27
2023-05-10T00:41:19.131Z,12.18
2023-05-10T00:42:18.192Z,12.10
2023-05-10T00:43:18.183Z,12.10
2023-05-10T00:44:18.926Z,12.17
2023-05-10T00:45:18.223Z,12.10
2023-05-10T00:46:19.038Z,12.18
2023-05-10T00:47:18.853Z,12.18
2023-05-10T00:48:18.133Z,12.20
2023-05-10T00:49:18.840Z,12.15
2023-05-10T00:50:19.175Z,12.15
2023-05-10T00:51:19.360Z,12.15
2023-05-10T00:52:19.371Z,12.17
2023-05-10T00:53:18.104Z,12.14
2023-05-10T00:54:18.083Z,12.09
2023-05-10T00:55:19.253Z,12.09
2023-05-10T00:56:18.952Z,12.02
2023-05-10T00:57:18.782Z,12.07
2023-05-10T00:58:18.654Z,12.00
2023-05-10T00:59:19.470Z,11.96
2023-05-10T01:00:18.879Z,11.95
2023-05-10T01:01:18.898Z,11.87
2023-05-10T01:02:18.734Z,11.86
2023-05-10T01:03:18.907Z,11.91
2023-05-10T01:04:19.375Z,11.97
2023-05-10T01:05:19.091Z,11.95
2023-05-10T01:06:18.605Z,11.91
2023-05-10T01:07:18.791Z,11.91
2023-05-10T01:08:18.668Z,11.84
2023-05-10T01:09:18.747Z,11.72
2023-05-10T01:10:18.884Z,11.69
2023-05-10T01:11:17.913Z,11.66
2023-05-10T01:12:18.649Z,11.68
2023-05-10T01:13:18.726Z,11.68
2023-05-10T01:14:18.716Z,11.69
2023-05-10T01:15:19.213Z,11.76
2023-05-10T01:16:18.673Z,11.74
2023-05-10T01:17:19.496Z,11.77
2023-05-10T01:18:18.629Z,11.76
2023-05-10T01:19:19.036Z,11.62
2023-05-10T01:20:19.429Z,11.61
2023-05-10T01:21:18.489Z,11.61
2023-05-10T01:22:19.139Z,11.72
2023-05-10T01:23:18.581Z,11.81
2023-05-10T01:24:17.805Z,11.74
2023-05-10T01:25:18.455Z,11.63
2023-05-10T01:26:19.677Z,11.62
2023-05-10T01:27:19.695Z,11.56
2023-05-10T01:28:18.692Z,11.51
2023-05-10T01:29:18.513Z,11.58
2023-05-10T01:30:18.324Z,11.71
2023-05-10T01:31:18.476Z,11.79
2023-05-10T01:32:17.693Z,11.79
2023-05-10T01:33:18.477Z,11.84
2023-05-10T01:34:19.399Z,11.97
2023-05-10T01:35:18.563Z,12.02
2023-05-10T01:36:19.037Z,12.00
2023-05-10T01:37:18.499Z,12.05
2023-05-10T01:38:18.359Z,12.05
2023-05-10T01:39:18.396Z,12.03
2023-05-10T01:40:19.301Z,11.99
2023-05-10T01:41:18.610Z,11.97
2023-05-10T01:42:18.504Z,11.96
2023-05-10T01:43:18.401Z,11.91
2023-05-10T01:44:18.088Z,11.91
2023-05-10T01:45:18.173Z,12.00
2023-05-10T01:46:17.651Z,12.07
2023-05-10T01:47:19.080Z,12.05
2023-05-10T01:48:19.044Z,12.15
2023-05-10T01:49:18.132Z,12.14
2023-05-10T01:50:18.866Z,12.10
2023-05-10T01:51:18.833Z,12.09
2023-05-10T01:52:18.392Z,12.10
2023-05-10T01:53:18.251Z,12.13
2023-05-10T01:54:18.519Z,12.15
2023-05-10T01:55:18.132Z,12.09
2023-05-10T01:56:18.843Z,12.09
2023-05-10T01:57:18.264Z,12.17
2023-05-10T01:58:18.762Z,12.13
2023-05-10T01:59:18.882Z,12.14
2023-05-10T02:00:18.954Z,12.14
2023-05-10T02:01:18.758Z,12.14
2023-05-10T02:02:18.078Z,12.07
2023-05-10T02:03:18.396Z,12.07
2023-05-10T02:04:18.711Z,12.07
2023-05-10T02:05:18.124Z,12.05
2023-05-10T02:06:18.011Z,12.13
2023-05-10T02:07:17.323Z,12.13
2023-05-10T02:08:18.021Z,12.09
2023-05-10T02:09:17.298Z,12.05
2023-05-10T02:10:18.226Z,11.88
2023-05-10T02:11:18.272Z,11.74
2023-05-10T02:12:18.132Z,11.71
2023-05-10T02:13:18.256Z,11.63
2023-05-10T02:14:18.022Z,11.51
2023-05-10T02:15:17.862Z,11.41
2023-05-10T02:16:17.272Z,11.48
2023-05-10T02:17:18.474Z,11.44
2023-05-10T02:18:17.236Z,11.38
2023-05-10T02:19:17.953Z,11.35
2023-05-10T02:20:18.431Z,11.38
2023-05-10T02:21:18.261Z,11.38
2023-05-10T02:22:18.491Z,11.26
2023-05-10T02:23:17.916Z,11.26
2023-05-10T02:24:18.032Z,11.20
2023-05-10T02:25:17.131Z,11.17
2023-05-10T02:26:18.471Z,11.01
2023-05-10T02:27:17.862Z,10.97
2023-05-10T02:28:17.873Z,11.00
2023-05-10T02:29:17.887Z,11.01
2023-05-10T02:30:18.014Z,11.04
2023-05-10T02:31:17.829Z,11.05
2023-05-10T02:32:18.097Z,11.08
2023-05-10T02:33:17.926Z,11.10
2023-05-10T02:34:17.768Z,11.07
2023-05-10T02:35:17.700Z,11.05
2023-05-10T02:36:18.448Z,11.12
2023-05-10T02:37:18.255Z,11.01
2023-05-10T02:38:18.489Z,11.00
2023-05-10T02:39:18.504Z,11.01
2023-05-10T02:40:18.362Z,11.00
2023-05-10T02:41:18.813Z,10.93
2023-05-10T02:42:18.351Z,10.78
2023-05-10T02:43:17.612Z,10.79
2023-05-10T02:44:17.627Z,10.89
2023-05-10T02:45:17.728Z,10.92
2023-05-10T02:46:18.445Z,10.93
2023-05-10T02:47:18.545Z,10.83
2023-05-10T02:48:16.892Z,10.79
2023-05-10T02:49:17.594Z,10.87
2023-05-10T02:50:17.844Z,10.86
2023-05-10T02:51:17.855Z,10.83
2023-05-10T02:52:17.907Z,10.86
2023-05-10T02:53:17.517Z,10.92
2023-05-10T02:54:18.266Z,10.90
2023-05-10T02:55:18.270Z,10.83
2023-05-10T02:56:18.177Z,10.71
2023-05-10T02:57:18.164Z,10.56
2023-05-10T02:58:16.866Z,10.65
2023-05-10T02:59:17.525Z,10.60
2023-05-10T03:00:17.867Z,10.56
2023-05-10T03:01:17.531Z,10.53
2023-05-10T03:02:17.309Z,10.46
2023-05-10T03:03:16.725Z,10.53
2023-05-10T03:04:17.450Z,10.48
2023-05-10T03:05:17.515Z,10.40
2023-05-10T03:06:16.705Z,10.37
2023-05-10T03:07:17.989Z,10.43
2023-05-10T03:08:17.396Z,10.52
2023-05-10T03:09:17.384Z,10.52
2023-05-10T03:10:18.402Z,10.48
2023-05-10T03:11:17.445Z,10.46
2023-05-10T03:12:16.668Z,10.43
2023-05-10T03:13:17.726Z,10.48
2023-05-10T03:14:16.640Z,10.48
2023-05-10T03:15:17.605Z,10.48
2023-05-10T03:16:17.392Z,10.49
2023-05-10T03:17:17.192Z,10.52
2023-05-10T03:18:18.018Z,10.48
2023-05-10T03:19:17.233Z,10.45
2023-05-10T03:20:16.768Z,10.46
2023-05-10T03:21:18.304Z,10.53
2023-05-10T03:22:17.945Z,10.49
2023-05-10T03:23:16.602Z,10.49
2023-05-10T03:24:17.325Z,10.40
2023-05-10T03:25:16.518Z,10.35
2023-05-10T03:26:17.296Z,10.30
2023-05-10T03:27:16.674Z,10.30
2023-05-10T03:28:18.177Z,10.33
2023-05-10T03:29:18.005Z,10.33
2023-05-10T03:30:17.526Z,10.28
2023-05-10T03:32:44.489Z,10.30
2023-05-10T03:32:52.561Z,10.33
2023-05-10T03:33:50.728Z,10.31
2023-05-10T03:35:12.246Z,10.40
2023-05-10T03:35:51.559Z,10.33
2023-05-10T03:37:12.176Z,10.37
2023-05-10T03:37:50.001Z,10.37
2023-05-10T03:39:12.196Z,10.38
2023-05-10T03:39:51.954Z,10.48
2023-05-10T03:41:12.906Z,10.56
2023-05-10T03:41:51.036Z,10.53
2023-05-10T03:43:12.695Z,10.59
2023-05-10T03:43:49.817Z,10.70
2023-05-10T03:45:12.175Z,10.75
2023-05-10T03:45:50.496Z,10.72
2023-05-10T03:47:12.039Z,10.75
2023-05-10T03:47:51.064Z,10.68
2023-05-10T03:49:13.144Z,10.64
2023-05-10T03:49:50.457Z,10.64
2023-05-10T03:51:12.207Z,10.72
2023-05-10T03:51:51.181Z,10.65
2023-05-10T03:53:12.455Z,10.52
2023-05-10T03:53:50.485Z,10.48
2023-05-10T03:55:12.598Z,10.53
2023-05-10T03:55:49.702Z,10.60
2023-05-10T03:57:11.898Z,10.54
2023-05-10T03:57:51.212Z,10.46
2023-05-10T03:59:11.976Z,10.48
2023-05-10T03:59:51.288Z,10.54
2023-05-10T04:01:12.046Z,10.59
2023-05-10T04:01:51.369Z,10.65
2023-05-10T04:03:12.075Z,10.70
2023-05-10T04:03:49.716Z,10.70
2023-05-10T04:05:12.836Z,10.75
2023-05-10T04:05:50.505Z,10.67
2023-05-10T04:07:12.126Z,10.59
2023-05-10T04:07:50.515Z,10.60
2023-05-10T04:09:11.946Z,10.64
2023-05-10T04:09:52.440Z,10.74
2023-05-10T04:11:12.452Z,10.68
2023-05-10T04:11:50.357Z,10.70
2023-05-10T04:13:11.916Z,10.71
2023-05-10T04:13:49.536Z,10.77
2023-05-10T08:59:38.320Z,19.16
2023-05-10T09:00:37.815Z,19.14
2023-05-10T09:01:38.622Z,19.26
2023-05-10T09:02:39.637Z,19.19
2023-05-10T09:03:38.606Z,19.29
2023-05-10T09:04:38.705Z,19.59
2023-05-10T09:05:37.765Z,20.21
2023-05-10T09:06:38.583Z,20.26
2023-05-10T09:07:38.375Z,20.19
2023-05-10T09:08:38.652Z,20.17
2023-05-10T09:09:37.705Z,19.91
2023-05-10T09:10:39.333Z,19.91
2023-05-10T09:11:38.342Z,19.99
2023-05-10T09:12:38.540Z,19.96
2023-05-10T09:13:38.328Z,19.94
2023-05-10T09:14:38.511Z,20.01
2023-05-10T09:15:37.636Z,20.14
2023-05-10T09:16:38.543Z,20.31
2023-05-10T09:17:37.704Z,20.41
2023-05-10T09:18:39.675Z,20.93
2023-05-10T09:19:37.592Z,21.10
2023-05-10T09:20:39.411Z,21.08
2023-05-10T09:21:38.341Z,21.47
2023-05-10T09:22:37.579Z,21.98
2023-05-10T09:23:38.460Z,22.58
2023-05-10T09:24:38.234Z,23.24
2023-05-10T09:25:38.528Z,22.73
2023-05-10T09:26:38.253Z,22.25
2023-05-10T09:27:38.375Z,22.10
2023-05-10T09:28:37.494Z,21.74
2023-05-10T09:29:39.261Z,21.92
2023-05-10T09:30:38.526Z,21.84
2023-05-10T09:31:37.607Z,22.13
2023-05-10T09:32:38.987Z,22.75
2023-05-10T09:33:38.371Z,22.48
2023-05-10T09:34:38.263Z,22.62
2023-05-10T09:35:37.436Z,22.48
2023-05-10T09:36:38.865Z,21.95
2023-05-10T09:37:38.340Z,21.63
2023-05-10T09:38:37.399Z,21.89
2023-05-10T09:39:39.187Z,21.82
2023-05-10T09:40:38.568Z,21.82
2023-05-10T09:41:37.373Z,21.67
2023-05-10T09:42:38.946Z,21.76
2023-05-10T09:43:37.989Z,21.26
2023-05-10T09:44:38.108Z,21.00
2023-05-10T09:45:38.923Z,20.95
2023-05-10T09:46:38.130Z,20.72
2023-05-10T09:47:37.360Z,20.43
2023-05-10T09:48:39.032Z,20.43
2023-05-10T09:49:38.702Z,20.92
2023-05-10T09:50:37.305Z,20.93
2023-05-10T09:51:38.043Z,20.87
2023-05-10T09:52:37.980Z,21.02
2023-05-10T09:53:37.264Z,21.15
2023-05-10T09:54:39.161Z,20.97
2023-05-10T09:55:38.076Z,20.99
2023-05-10T09:56:37.193Z,21.14
2023-05-10T09:57:38.082Z,20.84
2023-05-10T09:58:37.184Z,20.57
2023-05-10T09:59:38.053Z,20.43
2023-05-10T10:00:37.163Z,20.24
2023-05-10T10:01:38.782Z,20.04
2023-05-10T10:02:38.314Z,20.11
2023-05-10T10:03:37.111Z,19.84
2023-05-10T10:04:38.668Z,20.03
2023-05-10T10:05:38.057Z,20.17
2023-05-10T10:06:38.031Z,20.55
2023-05-10T10:07:37.094Z,20.99
2023-05-10T10:08:37.974Z,20.81
2023-05-10T10:09:37.059Z,20.93
2023-05-10T10:10:59.571Z,20.81
2023-05-10T10:11:38.709Z,20.53
2023-05-10T10:12:37.063Z,20.69
2023-05-10T10:13:37.795Z,20.82
2023-05-10T10:14:37.839Z,21.14
2023-05-10T10:15:37.087Z,21.32
2023-05-10T10:16:45.849Z,21.17
2023-05-10T10:17:37.892Z,21.24
2023-05-10T10:18:37.873Z,21.57
2023-05-10T10:19:38.246Z,21.57
2023-05-10T10:20:37.785Z,21.50
2023-05-10T10:21:37.692Z,21.32
2023-05-10T10:23:47.283Z,21.06
2023-05-10T10:24:47.360Z,20.97
2023-05-10T10:26:09.393Z,21.03
2023-05-10T10:26:48.881Z,21.20
2023-05-10T10:27:47.302Z,21.20
2023-05-10T10:28:48.142Z,21.21
2023-05-10T10:29:47.891Z,21.51
2023-05-10T10:30:48.279Z,21.79
2023-05-10T10:31:47.928Z,21.72
2023-05-10T10:32:49.128Z,21.55
2023-05-10T10:33:48.411Z,21.73
2023-05-10T10:34:48.113Z,21.79
2023-05-10T10:35:48.903Z,21.77
2023-05-10T10:36:47.228Z,22.11
2023-05-10T10:37:47.951Z,21.99
2023-05-10T10:38:48.036Z,22.17
2023-05-10T10:39:47.935Z,21.82
2023-05-10T10:40:47.851Z,21.69
2023-05-10T10:41:47.132Z,21.67
2023-05-10T10:42:49.022Z,21.66
2023-05-10T10:43:48.234Z,21.54
2023-05-10T10:44:47.804Z,21.18
2023-05-10T10:45:47.963Z,21.08
2023-05-10T10:46:47.913Z,21.14
2023-05-10T10:47:47.084Z,21.11
2023-05-10T10:48:47.782Z,21.03
2023-05-10T10:49:47.084Z,21.11
2023-05-10T10:50:48.647Z,21.00
2023-05-10T10:51:47.993Z,21.14
2023-05-10T10:52:47.139Z,21.45
2023-05-10T10:53:48.011Z,21.58
2023-05-10T10:54:47.822Z,21.65
2023-05-10T10:55:48.355Z,21.67
2023-05-10T10:56:47.582Z,21.36
2023-05-10T10:58:09.584Z,21.00
2023-05-10T10:58:48.441Z,20.85
2023-05-10T10:59:48.535Z,20.81
2023-05-10T11:00:46.972Z,21.12
2023-05-10T11:01:48.730Z,21.11
2023-05-10T11:02:48.170Z,21.32
2023-05-10T11:03:48.792Z,21.11
2023-05-10T11:04:47.868Z,21.06
2023-05-10T11:05:46.915Z,20.92
2023-05-10T11:06:47.749Z,21.03
2023-05-10T11:07:47.660Z,21.11
2023-05-10T11:08:47.690Z,21.17
2023-05-10T11:09:47.629Z,21.12
2023-05-10T11:10:46.802Z,21.03
2023-05-10T11:11:47.690Z,20.97
2023-05-10T11:12:46.800Z,20.99
2023-05-10T11:13:50.969Z,21.17
2023-05-10T11:14:47.552Z,21.35
2023-05-10T11:15:47.761Z,21.43
2023-05-10T11:16:47.827Z,21.42
2023-05-10T11:17:47.631Z,21.30
2023-05-10T11:18:48.567Z,21.37
2023-05-10T11:19:46.741Z,21.27
2023-05-10T11:20:46.718Z,21.33
2023-05-10T11:21:48.382Z,21.37
2023-05-10T11:22:47.885Z,21.48
2023-05-10T11:23:46.720Z,21.66
2023-05-10T11:24:50.116Z,21.57
2023-05-10T11:25:47.540Z,21.17
2023-05-10T11:26:47.412Z,21.24
2023-05-10T11:27:47.449Z,21.20
2023-05-10T11:28:47.580Z,21.20
2023-05-10T11:29:48.228Z,21.02
2023-05-10T11:30:47.479Z,21.00
2023-05-10T11:31:47.290Z,20.97
2023-05-10T11:32:47.494Z,21.20
2023-05-10T11:33:46.628Z,21.21
2023-05-10T11:34:47.339Z,21.05
2023-05-10T11:35:47.308Z,20.95
2023-05-10T11:36:47.389Z,20.99
2023-05-10T11:37:47.370Z,21.14
2023-05-10T11:38:46.509Z,21.05
2023-05-10T11:39:47.301Z,20.92
2023-05-10T11:40:47.300Z,20.93
2023-05-10T11:41:47.360Z,20.90
2023-05-10T11:42:46.484Z,20.87
2023-05-10T11:43:47.298Z,20.81
2023-05-10T11:44:46.461Z,20.81
2023-05-10T11:45:47.364Z,20.77
2023-05-10T11:46:47.133Z,20.65
2023-05-10T11:47:47.355Z,20.81
2023-05-10T11:48:46.426Z,20.93
2023-05-10T11:49:47.314Z,21.06
2023-05-10T11:50:47.164Z,21.20
2023-05-10T11:51:47.165Z,21.06
2023-05-10T11:52:47.106Z,21.08
2023-05-10T11:53:47.162Z,21.18
2023-05-10T11:54:47.091Z,21.29
2023-05-10T11:55:47.021Z,21.26
2023-05-10T11:56:47.101Z,21.18
2023-05-10T11:57:46.989Z,21.18
2023-05-10T11:58:47.062Z,21.24
2023-05-10T11:59:47.180Z,21.22
2023-05-10T12:00:47.154Z,21.14
2023-05-10T12:01:47.022Z,21.18
2023-05-10T12:02:47.231Z,21.29
2023-05-10T12:03:47.209Z,21.29
2023-05-10T12:04:47.078Z,21.36
2023-05-10T12:05:46.962Z,21.50
2023-05-10T12:06:47.049Z,21.17
2023-05-10T12:07:47.076Z,21.10
2023-05-10T12:08:47.036Z,21.14
2023-05-10T12:09:47.260Z,21.21
2023-05-10T12:10:46.768Z,21.17
2023-05-10T12:11:46.919Z,21.21
2023-05-10T12:12:46.772Z,21.06
2023-05-10T12:13:47.005Z,21.10
2023-05-10T12:14:46.876Z,21.18
2023-05-10T12:15:46.988Z,21.21
2023-05-10T12:16:46.927Z,21.26
2023-05-10T12:17:46.122Z,21.32
2023-05-10T12:18:47.590Z,21.30
2023-05-10T12:19:47.040Z,21.08
2023-05-10T12:20:46.948Z,20.93
2023-05-10T12:21:46.162Z,20.84
2023-05-10T12:22:46.849Z,20.93
2023-05-10T12:23:46.080Z,21.08
2023-05-10T12:24:47.760Z,21.00
2023-05-10T12:25:46.968Z,20.96
2023-05-10T12:26:45.998Z,21.03
2023-05-10T12:27:46.698Z,21.06
2023-05-10T12:28:46.830Z,21.18
2023-05-10T12:29:45.994Z,21.35
2023-05-10T12:30:46.820Z,21.32
2023-05-10T12:31:46.734Z,21.33
2023-05-10T12:32:46.850Z,21.22
2023-05-10T12:33:46.679Z,21.06
2023-05-10T12:34:46.833Z,21.17
2023-05-10T12:35:45.910Z,21.29
2023-05-10T12:36:47.782Z,21.37
2023-05-10T12:37:46.951Z,21.32
2023-05-10T12:38:46.693Z,21.18
2023-05-10T12:39:45.891Z,21.33
2023-05-10T12:40:47.616Z,21.48
2023-05-10T12:41:46.652Z,21.32
2023-05-10T12:42:46.538Z,21.39
2023-05-10T12:43:45.831Z,21.40
2023-05-10T12:44:47.551Z,21.42
2023-05-10T12:45:46.768Z,21.43
2023-05-10T12:46:46.664Z,21.40
2023-05-10T12:47:46.714Z,21.27
2023-05-10T12:48:46.527Z,21.35
2023-05-10T12:49:45.760Z,21.59
2023-05-10T12:50:47.269Z,21.54
2023-05-10T12:51:47.446Z,21.35
2023-05-10T12:52:45.772Z,21.03
2023-05-10T12:53:49.438Z,21.10
2023-05-10T12:54:47.124Z,21.10
2023-05-10T12:55:45.722Z,21.18
2023-05-10T12:56:47.556Z,21.26
2023-05-10T12:57:46.303Z,21.29
2023-05-10T12:58:46.623Z,21.18
2023-05-10T12:59:46.380Z,21.05
2023-05-10T13:00:46.653Z,21.03
2023-05-10T13:01:46.459Z,21.05
2023-05-10T13:02:46.517Z,21.08
2023-05-10T13:03:45.633Z,21.08
2023-05-10T13:04:50.249Z,21.27
2023-05-10T13:05:47.002Z,21.18
2023-05-10T13:06:45.599Z,21.12
2023-05-10T13:07:47.410Z,21.27
2023-05-10T13:08:46.365Z,21.40
2023-05-10T13:09:46.324Z,21.26
2023-05-10T13:10:46.182Z,21.14
2023-05-10T13:11:45.536Z,21.26
2023-05-10T13:12:47.161Z,21.27
2023-05-10T13:13:46.370Z,21.14
2023-05-10T13:14:45.543Z,21.06
2023-05-10T13:15:47.235Z,21.12
2023-05-10T13:16:46.509Z,21.08
2023-05-10T13:17:45.477Z,21.29
2023-05-10T13:18:47.219Z,21.33
2023-05-10T13:19:45.490Z,21.39
2023-05-10T13:20:46.175Z,21.50
2023-05-10T13:21:45.429Z,21.40
2023-05-10T13:22:46.201Z,21.42
2023-05-10T13:23:45.402Z,21.22
2023-05-10T13:24:46.141Z,21.15
2023-05-10T13:25:45.434Z,21.20
2023-05-10T13:26:46.983Z,21.32
2023-05-10T13:27:46.153Z,21.33
2023-05-10T13:28:46.209Z,21.21
2023-05-10T13:29:47.467Z,21.08
2023-05-10T13:30:45.318Z,21.12
2023-05-10T13:31:46.930Z,21.02
2023-05-10T13:32:46.173Z,20.81
2023-05-10T13:33:45.333Z,20.77
2023-05-10T13:34:46.177Z,20.63
2023-05-10T13:35:45.270Z,20.52
2023-05-10T13:36:46.980Z,20.53
2023-05-10T13:37:46.012Z,20.62
2023-05-10T13:38:46.057Z,20.77
2023-05-10T13:39:46.000Z,20.92
2023-05-10T13:40:45.270Z,20.77
2023-05-10T13:41:46.842Z,20.75
2023-05-10T13:42:46.141Z,20.60
2023-05-10T13:43:45.195Z,20.67
2023-05-10T13:44:46.336Z,20.71
2023-05-10T13:45:46.115Z,20.78
2023-05-10T13:46:45.184Z,20.75
2023-05-10T13:47:46.983Z,20.66
2023-05-10T13:48:46.178Z,20.81
2023-05-10T13:49:46.024Z,20.95
2023-05-10T13:50:45.848Z,20.93
2023-05-10T13:51:45.132Z,21.02
2023-05-10T13:52:46.611Z,21.06
2023-05-10T13:53:45.915Z,21.14
2023-05-10T13:54:45.884Z,21.06
2023-05-10T13:55:45.768Z,20.97
2023-05-10T13:56:45.139Z,20.90
2023-05-10T13:57:46.848Z,21.03
2023-05-10T13:58:46.863Z,21.15
2023-05-10T13:59:45.852Z,21.14
2023-05-10T14:00:45.008Z,20.96
2023-05-10T14:01:46.372Z,20.97
2023-05-10T14:02:46.128Z,20.93
2023-05-10T14:03:45.742Z,20.87
2023-05-10T14:04:45.027Z,20.89
2023-05-10T14:05:45.719Z,20.85
2023-05-10T14:06:44.965Z,20.87
2023-05-10T14:07:45.673Z,20.93
2023-05-10T14:08:44.938Z,20.82
2023-05-10T14:09:46.566Z,20.85
2023-05-10T14:10:45.877Z,20.95
2023-05-10T14:11:45.278Z,20.93
2023-05-10T14:12:45.553Z,21.05
2023-05-10T14:13:45.662Z,21.08
2023-05-10T14:14:45.618Z,21.15
2023-05-10T14:15:45.663Z,21.12
2023-05-10T14:16:44.960Z,21.15
2023-05-10T14:17:45.881Z,21.26
2023-05-10T14:18:45.692Z,21.30
2023-05-10T14:19:44.823Z,21.22
2023-05-10T14:20:45.522Z,21.21
2023-05-10T14:21:45.613Z,21.17
2023-05-10T14:22:44.783Z,21.22
2023-05-10T14:23:45.830Z,21.10
2023-05-10T14:24:44.782Z,21.06
2023-05-10T14:25:45.363Z,21.02
2023-05-10T14:26:44.725Z,21.11
2023-05-10T14:27:46.488Z,21.08
2023-05-10T14:28:45.713Z,20.95
2023-05-10T14:29:44.693Z,20.90
2023-05-10T14:30:45.693Z,20.92
2023-05-10T14:31:45.457Z,20.93
2023-05-10T14:32:45.504Z,21.00
2023-05-10T14:33:45.316Z,20.90
2023-05-10T14:34:45.462Z,20.89
2023-05-10T14:35:44.642Z,20.80
2023-05-10T14:36:45.572Z,20.74
2023-05-10T14:37:46.467Z,20.74
2023-05-10T14:38:45.483Z,20.71
2023-05-10T14:39:44.601Z,20.71
2023-05-10T14:40:45.879Z,20.67
2023-05-10T14:41:45.364Z,20.69
2023-05-10T14:42:44.560Z,20.67
2023-05-10T14:43:45.462Z,20.65
2023-05-10T14:44:45.334Z,20.65
2023-05-10T14:45:45.556Z,20.63
2023-05-10T14:46:44.544Z,20.57
2023-05-10T14:47:46.157Z,20.65
2023-05-10T14:48:45.199Z,20.53
2023-05-10T14:49:44.541Z,20.41
2023-05-10T14:50:46.498Z,20.48
2023-05-10T14:51:45.465Z,20.62
2023-05-10T14:52:45.245Z,20.69
2023-05-10T14:53:45.260Z,20.72
2023-05-10T14:54:45.373Z,20.71
2023-05-10T14:55:45.030Z,20.80
2023-05-10T14:56:44.475Z,20.85
2023-05-10T14:57:45.110Z,20.72
2023-05-10T14:58:44.389Z,20.59
2023-05-10T14:59:46.187Z,20.55
2023-05-10T15:00:45.916Z,20.43
2023-05-10T15:01:44.489Z,20.48
2023-05-10T15:02:46.098Z,20.59
2023-05-10T15:03:45.919Z,20.57
2023-05-10T15:04:44.316Z,20.71
2023-05-10T15:05:45.830Z,20.80
2023-05-10T15:06:45.515Z,20.72
2023-05-10T15:07:44.340Z,20.57
2023-05-10T15:08:46.083Z,20.60
2023-05-10T15:09:45.016Z,20.52
2023-05-10T15:10:44.498Z,20.59
2023-05-10T15:11:45.055Z,20.52
2023-05-10T15:12:44.879Z,20.43
2023-05-10T15:13:45.131Z,20.44
2023-05-10T15:14:44.495Z,20.47
2023-05-10T15:15:45.077Z,20.41
2023-05-10T15:16:44.489Z,20.41
2023-05-10T15:17:45.359Z,20.44
2023-05-10T15:18:44.260Z,20.41
2023-05-10T15:19:44.991Z,20.41
2023-05-10T15:20:44.987Z,20.43
2023-05-10T15:21:45.004Z,20.40
2023-05-10T15:22:44.959Z,20.48
2023-05-10T15:23:44.487Z,20.60
2023-05-10T15:24:45.723Z,20.66
2023-05-10T15:25:44.985Z,20.65
2023-05-10T15:26:45.281Z,20.71
2023-05-10T15:27:44.726Z,20.71
2023-05-10T15:28:44.973Z,20.80
2023-05-10T15:29:44.897Z,20.80
2023-05-10T15:30:44.366Z,20.65
2023-05-10T15:31:45.931Z,20.65
2023-05-10T15:32:45.715Z,20.65
2023-05-10T15:33:44.302Z,20.57
2023-05-10T15:34:45.146Z,20.50
2023-05-10T15:35:43.980Z,20.43
2023-05-10T15:36:45.692Z,20.36
2023-05-10T15:37:44.722Z,20.34
2023-05-10T15:38:44.810Z,20.18
2023-05-10T15:39:44.776Z,20.19
2023-05-10T15:40:44.003Z,20.18
2023-05-10T15:41:45.594Z,20.15
2023-05-10T15:42:44.897Z,20.18
2023-05-10T15:43:44.717Z,20.19
2023-05-10T15:44:43.928Z,20.17
2023-05-10T15:45:44.827Z,20.17
2023-05-10T15:46:43.950Z,20.21
2023-05-10T15:47:45.449Z,20.22
2023-05-10T15:48:45.218Z,20.17
2023-05-10T15:49:43.847Z,20.15
2023-05-10T15:50:45.715Z,20.15
2023-05-10T15:51:45.362Z,20.07
2023-05-10T15:52:44.731Z,20.00
2023-05-10T15:54:00.413Z,20.00
2023-05-10T15:54:44.532Z,19.97
2023-05-10T15:55:44.406Z,19.94
2023-05-10T15:56:43.800Z,19.92
2023-05-10T15:57:44.436Z,19.85
2023-05-10T15:58:43.810Z,19.88
2023-05-10T15:59:44.420Z,19.82
2023-05-10T16:00:44.628Z,19.85
2023-05-10T16:01:43.760Z,19.74
2023-05-10T16:02:44.668Z,19.67
2023-05-10T16:03:44.189Z,19.60
2023-05-10T16:05:06.339Z,19.63
2023-05-10T16:05:45.145Z,19.55
2023-05-10T16:06:44.041Z,19.52
2023-05-10T16:07:44.488Z,19.48
2023-05-10T16:08:44.495Z,19.45
2023-05-10T16:09:43.625Z,19.46
2023-05-10T16:10:44.352Z,19.44
2023-05-10T16:11:44.377Z,19.41
2023-05-10T16:12:43.612Z,19.42
2023-05-10T16:13:44.392Z,19.42
2023-05-10T16:14:43.589Z,19.36
2023-05-10T16:15:45.133Z,19.37
2023-05-10T16:16:44.433Z,19.39
2023-05-10T16:17:43.638Z,19.36
2023-05-10T16:18:45.016Z,19.36
2023-05-10T16:19:44.502Z,19.30
2023-05-10T16:20:43.529Z,19.30
2023-05-10T16:21:45.036Z,19.23
2023-05-10T16:22:43.560Z,19.18
2023-05-10T16:23:45.273Z,19.22
2023-05-10T16:24:45.130Z,19.19
2023-05-10T16:25:44.797Z,19.12
2023-05-10T16:26:44.290Z,19.11
2023-05-10T16:27:43.477Z,19.04
2023-05-10T16:28:44.282Z,18.98
2023-05-10T16:29:44.323Z,18.93
2023-05-10T16:30:44.612Z,18.92
2023-05-10T16:31:44.092Z,18.90
2023-05-10T16:32:44.338Z,18.83
2023-05-10T16:33:44.571Z,18.81
2023-05-10T16:34:43.618Z,18.75
2023-05-10T16:35:44.092Z,18.75
2023-05-10T16:36:44.242Z,18.78
2023-05-10T16:37:44.142Z,18.77
2023-05-10T16:38:44.209Z,18.77
2023-05-10T16:39:44.150Z,18.73
2023-05-10T16:40:43.911Z,18.67
2023-05-10T16:41:43.331Z,18.68
2023-05-10T16:42:44.832Z,18.67
2023-05-10T16:43:44.200Z,18.63
2023-05-10T16:44:43.917Z,18.66
2023-05-10T16:45:43.302Z,18.62
2023-05-10T16:46:45.066Z,18.62
2023-05-10T16:47:44.872Z,18.63
2023-05-10T16:48:43.952Z,18.58
2023-05-10T16:49:43.200Z,18.55
2023-05-10T16:50:43.928Z,18.50
2023-05-10T16:51:43.238Z,18.48
2023-05-10T16:52:43.950Z,18.46
2023-05-10T16:53:43.990Z,18.44
2023-05-10T16:54:43.914Z,18.43
2023-05-10T16:55:43.371Z,18.43
2023-05-10T16:56:45.047Z,18.40
2023-05-10T16:57:44.574Z,18.37
2023-05-10T16:58:43.245Z,18.35
2023-05-10T16:59:44.451Z,18.33
2023-05-10T17:00:43.875Z,18.34
2023-05-10T17:01:43.092Z,18.33
2023-05-10T17:02:44.058Z,18.28
2023-05-10T17:03:43.428Z,18.30
2023-05-10T17:04:44.652Z,18.30
2023-05-10T17:05:43.776Z,18.30
2023-05-10T17:06:43.879Z,18.25
2023-05-10T17:07:44.794Z,18.19
2023-05-10T17:08:43.861Z,18.18
2023-05-10T17:09:43.053Z,18.12
2023-05-10T17:10:43.623Z,18.13
2023-05-10T17:11:43.244Z,18.10
2023-05-10T17:12:44.872Z,18.10
2023-05-10T17:13:43.764Z,18.07
2023-05-10T17:14:42.942Z,18.07
2023-05-10T17:15:45.123Z,18.05
2023-05-10T17:16:44.490Z,18.04
2023-05-10T17:17:42.942Z,18.00
2023-05-10T17:18:43.747Z,18.00
2023-05-10T17:19:43.717Z,17.95
2023-05-10T17:20:42.884Z,17.97
2023-05-10T17:21:43.721Z,17.93
2023-05-10T17:22:43.726Z,17.93
2023-05-10T17:23:43.645Z,17.89
2023-05-10T17:24:43.617Z,17.86
2023-05-10T17:25:43.473Z,17.85
2023-05-10T17:26:43.594Z,17.83
2023-05-10T17:27:43.506Z,17.80
2023-05-10T17:28:43.643Z,17.80
2023-05-10T17:29:42.780Z,17.79
2023-05-10T17:30:44.345Z,17.79
2023-05-10T17:31:43.524Z,17.75
2023-05-10T17:32:42.794Z,17.71
2023-05-10T17:33:44.666Z,17.71
2023-05-10T17:34:43.992Z,17.68
2023-05-10T17:35:43.413Z,17.65
2023-05-10T17:36:42.724Z,17.64
2023-05-10T17:37:43.472Z,17.63
2023-05-10T17:38:42.713Z,17.57